sensor_id;sensor_type;location;lat;lon;timestamp;temperature;humidity
49855;DHT22;35752;52.164;21.244;2022-07-04T00:00:36;16.60;99.90
49855;DHT22;35752;52.164;21.244;2022-07-04T00:03:02;16.60;99.90
49855;DHT22;35752;52.164;21.244;2022-07-04T00:05:28;16.60;99.90
49855;DHT22;35752;52.164;21.244;2022-07-04T00:07:53;16.50;99.90
49855;DHT22;35752;52.164;21.244;2022-07-04T00:10:20;16.60;99.90
49855;DHT22;35752;52.164;21.244;2022-07-04T00:12:48;16.60;99.90
49855;DHT22;35752;52.164;21.244;2022-07-04T00:15:14;16.60;99.90
49855;DHT22;35752;52.164;21.244;2022-07-04T00:17:40;16.60;99.90
49855;DHT22;35752;52.164;21.244;2022-07-04T00:20:07;16.60;99.90
49855;DHT22;35752;52.164;21.244;2022-07-04T00:22:34;16.60;99.90
49855;DHT22;35752;52.164;21.244;2022-07-04T00:25:00;16.50;99.90
49855;DHT22;35752;52.164;21.244;2022-07-04T00:27:25;16.50;99.90
49855;DHT22;35752;52.164;21.244;2022-07-04T00:29:51;16.40;99.90
49855;DHT22;35752;52.164;21.244;2022-07-04T00:32:17;16.40;99.90
49855;DHT22;35752;52.164;21.244;2022-07-04T00:34:43;16.40;99.90
49855;DHT22;35752;52.164;21.244;2022-07-04T00:37:09;16.40;99.90
49855;DHT22;35752;52.164;21.244;2022-07-04T00:39:35;16.40;99.90
49855;DHT22;35752;52.164;21.244;2022-07-04T00:42:01;16.50;99.90
49855;DHT22;35752;52.164;21.244;2022-07-04T00:44:26;16.40;99.90
49855;DHT22;35752;52.164;21.244;2022-07-04T00:46:52;16.40;99.90
49855;DHT22;35752;52.164;21.244;2022-07-04T00:49:18;16.30;99.90
49855;DHT22;35752;52.164;21.244;2022-07-04T00:51:45;16.20;99.90
49855;DHT22;35752;52.164;21.244;2022-07-04T00:54:14;16.20;99.90
49855;DHT22;35752;52.164;21.244;2022-07-04T00:56:42;16.10;99.90
49855;DHT22;35752;52.164;21.244;2022-07-04T00:59:08;16.10;99.90
49855;DHT22;35752;52.164;21.244;2022-07-04T01:01:34;16.10;99.90
49855;DHT22;35752;52.164;21.244;2022-07-04T01:04:02;16.10;99.90
49855;DHT22;35752;52.164;21.244;2022-07-04T01:06:28;16.10;99.90
49855;DHT22;35752;52.164;21.244;2022-07-04T01:08:54;16.10;99.90
49855;DHT22;35752;52.164;21.244;2022-07-04T01:11:20;16.10;99.90
49855;DHT22;35752;52.164;21.244;2022-07-04T01:13:46;16.00;99.90
49855;DHT22;35752;52.164;21.244;2022-07-04T01:16:12;16.00;99.90
49855;DHT22;35752;52.164;21.244;2022-07-04T01:18:38;15.90;99.90
49855;DHT22;35752;52.164;21.244;2022-07-04T01:21:05;15.90;99.90
49855;DHT22;35752;52.164;21.244;2022-07-04T01:23:31;15.90;99.90
49855;DHT22;35752;52.164;21.244;2022-07-04T01:25:57;15.90;99.90
49855;DHT22;35752;52.164;21.244;2022-07-04T01:28:24;15.80;99.90
49855;DHT22;35752;52.164;21.244;2022-07-04T01:30:51;15.80;99.90
49855;DHT22;35752;52.164;21.244;2022-07-04T01:33:17;15.80;99.90
49855;DHT22;35752;52.164;21.244;2022-07-04T01:35:46;15.80;99.90
49855;DHT22;35752;52.164;21.244;2022-07-04T01:38:13;15.80;99.90
49855;DHT22;35752;52.164;21.244;2022-07-04T01:40:39;15.60;99.90
49855;DHT22;35752;52.164;21.244;2022-07-04T01:43:05;15.50;99.90
49855;DHT22;35752;52.164;21.244;2022-07-04T01:45:31;15.50;99.90
49855;DHT22;35752;52.164;21.244;2022-07-04T01:48:09;15.50;99.90
49855;DHT22;35752;52.164;21.244;2022-07-04T01:50:36;15.50;99.90
49855;DHT22;35752;52.164;21.244;2022-07-04T01:53:02;15.50;99.90
49855;DHT22;35752;52.164;21.244;2022-07-04T01:55:29;15.40;99.90
49855;DHT22;35752;52.164;21.244;2022-07-04T01:57:55;15.50;99.90
49855;DHT22;35752;52.164;21.244;2022-07-04T02:00:21;15.50;99.90
49855;DHT22;35752;52.164;21.244;2022-07-04T02:03:05;15.50;99.90
49855;DHT22;35752;52.164;21.244;2022-07-04T02:05:31;15.40;99.90
49855;DHT22;35752;52.164;21.244;2022-07-04T02:07:57;15.30;99.90
49855;DHT22;35752;52.164;21.244;2022-07-04T02:10:23;15.30;99.90
49855;DHT22;35752;52.164;21.244;2022-07-04T02:12:48;15.30;99.90
49855;DHT22;35752;52.164;21.244;2022-07-04T02:15:47;15.30;99.90
49855;DHT22;35752;52.164;21.244;2022-07-04T02:18:12;15.40;99.90
49855;DHT22;35752;52.164;21.244;2022-07-04T02:20:38;15.30;99.90
49855;DHT22;35752;52.164;21.244;2022-07-04T02:23:05;15.30;99.90
49855;DHT22;35752;52.164;21.244;2022-07-04T02:25:31;15.30;99.90
49855;DHT22;35752;52.164;21.244;2022-07-04T02:27:57;15.30;99.90
49855;DHT22;35752;52.164;21.244;2022-07-04T02:30:24;15.30;99.90
49855;DHT22;35752;52.164;21.244;2022-07-04T02:32:50;15.30;99.90
49855;DHT22;35752;52.164;21.244;2022-07-04T02:35:15;15.30;99.90
49855;DHT22;35752;52.164;21.244;2022-07-04T02:37:41;15.30;99.90
49855;DHT22;35752;52.164;21.244;2022-07-04T02:40:07;15.30;99.90
49855;DHT22;35752;52.164;21.244;2022-07-04T02:42:34;15.30;99.90
49855;DHT22;35752;52.164;21.244;2022-07-04T02:45:00;15.30;99.90
49855;DHT22;35752;52.164;21.244;2022-07-04T02:47:27;15.30;99.90
49855;DHT22;35752;52.164;21.244;2022-07-04T02:49:53;15.40;99.90
49855;DHT22;35752;52.164;21.244;2022-07-04T02:52:19;15.40;99.90
49855;DHT22;35752;52.164;21.244;2022-07-04T02:54:45;15.40;99.90
49855;DHT22;35752;52.164;21.244;2022-07-04T02:57:12;15.40;99.90
49855;DHT22;35752;52.164;21.244;2022-07-04T02:59:38;15.40;99.90
49855;DHT22;35752;52.164;21.244;2022-07-04T03:02:04;15.50;99.90
49855;DHT22;35752;52.164;21.244;2022-07-04T03:04:30;15.50;99.90
49855;DHT22;35752;52.164;21.244;2022-07-04T03:06:55;15.50;99.90
49855;DHT22;35752;52.164;21.244;2022-07-04T03:09:21;15.60;99.90
49855;DHT22;35752;52.164;21.244;2022-07-04T03:11:47;15.50;99.90
49855;DHT22;35752;52.164;21.244;2022-07-04T03:14:13;15.50;99.90
49855;DHT22;35752;52.164;21.244;2022-07-04T03:16:39;15.50;99.90
49855;DHT22;35752;52.164;21.244;2022-07-04T03:19:05;15.50;99.90
49855;DHT22;35752;52.164;21.244;2022-07-04T03:21:30;15.60;99.90
49855;DHT22;35752;52.164;21.244;2022-07-04T03:23:56;15.60;99.90
49855;DHT22;35752;52.164;21.244;2022-07-04T03:26:25;15.70;99.90
49855;DHT22;35752;52.164;21.244;2022-07-04T03:28:52;15.70;99.90
49855;DHT22;35752;52.164;21.244;2022-07-04T03:31:18;15.80;99.90
49855;DHT22;35752;52.164;21.244;2022-07-04T03:33:43;15.90;99.90
49855;DHT22;35752;52.164;21.244;2022-07-04T03:36:09;15.90;99.90
49855;DHT22;35752;52.164;21.244;2022-07-04T03:38:35;16.00;99.90
49855;DHT22;35752;52.164;21.244;2022-07-04T03:41:01;16.20;99.90
49855;DHT22;35752;52.164;21.244;2022-07-04T03:43:26;16.20;99.90
49855;DHT22;35752;52.164;21.244;2022-07-04T03:45:52;16.20;99.90
49855;DHT22;35752;52.164;21.244;2022-07-04T03:48:17;16.40;99.90
49855;DHT22;35752;52.164;21.244;2022-07-04T03:50:43;16.50;99.90
49855;DHT22;35752;52.164;21.244;2022-07-04T03:53:09;16.70;99.90
49855;DHT22;35752;52.164;21.244;2022-07-04T03:55:34;16.80;99.90
49855;DHT22;35752;52.164;21.244;2022-07-04T03:58:00;16.90;99.90
49855;DHT22;35752;52.164;21.244;2022-07-04T04:00:26;16.90;99.90
49855;DHT22;35752;52.164;21.244;2022-07-04T04:02:52;17.10;99.90
49855;DHT22;35752;52.164;21.244;2022-07-04T04:05:18;17.40;99.90
49855;DHT22;35752;52.164;21.244;2022-07-04T04:07:57;18.30;99.90
49855;DHT22;35752;52.164;21.244;2022-07-04T04:10:24;19.30;99.90
49855;DHT22;35752;52.164;21.244;2022-07-04T04:12:49;20.10;99.90
49855;DHT22;35752;52.164;21.244;2022-07-04T04:15:15;21.00;99.90
49855;DHT22;35752;52.164;21.244;2022-07-04T04:17:41;21.60;99.90
49855;DHT22;35752;52.164;21.244;2022-07-04T04:20:07;22.30;99.90
49855;DHT22;35752;52.164;21.244;2022-07-04T04:22:34;22.80;99.90
49855;DHT22;35752;52.164;21.244;2022-07-04T04:25:00;23.00;99.90
49855;DHT22;35752;52.164;21.244;2022-07-04T04:27:26;23.30;99.90
49855;DHT22;35752;52.164;21.244;2022-07-04T04:29:52;23.60;99.90
49855;DHT22;35752;52.164;21.244;2022-07-04T04:32:17;24.00;99.90
49855;DHT22;35752;52.164;21.244;2022-07-04T04:34:43;24.10;99.90
49855;DHT22;35752;52.164;21.244;2022-07-04T04:37:09;24.00;99.90
49855;DHT22;35752;52.164;21.244;2022-07-04T04:39:34;24.10;99.90
49855;DHT22;35752;52.164;21.244;2022-07-04T04:42:00;24.20;99.90
49855;DHT22;35752;52.164;21.244;2022-07-04T04:44:26;24.40;99.90
49855;DHT22;35752;52.164;21.244;2022-07-04T04:46:52;24.60;99.90
49855;DHT22;35752;52.164;21.244;2022-07-04T04:49:17;24.70;99.90
49855;DHT22;35752;52.164;21.244;2022-07-04T04:51:44;25.10;99.90
49855;DHT22;35752;52.164;21.244;2022-07-04T04:54:10;25.20;99.90
49855;DHT22;35752;52.164;21.244;2022-07-04T04:56:35;25.50;99.90
49855;DHT22;35752;52.164;21.244;2022-07-04T04:59:01;25.70;99.90
49855;DHT22;35752;52.164;21.244;2022-07-04T05:01:27;25.30;99.90
49855;DHT22;35752;52.164;21.244;2022-07-04T05:03:52;24.90;99.90
49855;DHT22;35752;52.164;21.244;2022-07-04T05:06:18;24.10;99.90
49855;DHT22;35752;52.164;21.244;2022-07-04T05:08:44;23.60;99.90
49855;DHT22;35752;52.164;21.244;2022-07-04T05:11:10;23.30;99.90
49855;DHT22;35752;52.164;21.244;2022-07-04T05:13:36;22.80;99.90
49855;DHT22;35752;52.164;21.244;2022-07-04T05:16:02;22.50;99.90
49855;DHT22;35752;52.164;21.244;2022-07-04T05:18:27;22.40;99.90
49855;DHT22;35752;52.164;21.244;2022-07-04T05:20:53;22.20;99.90
49855;DHT22;35752;52.164;21.244;2022-07-04T05:23:19;22.20;99.90
49855;DHT22;35752;52.164;21.244;2022-07-04T05:25:44;22.10;99.90
49855;DHT22;35752;52.164;21.244;2022-07-04T05:28:10;22.00;99.90
49855;DHT22;35752;52.164;21.244;2022-07-04T05:30:36;22.00;99.90
49855;DHT22;35752;52.164;21.244;2022-07-04T05:33:01;22.00;99.90
49855;DHT22;35752;52.164;21.244;2022-07-04T05:35:27;22.00;99.90
49855;DHT22;35752;52.164;21.244;2022-07-04T05:37:53;21.90;99.90
49855;DHT22;35752;52.164;21.244;2022-07-04T05:40:19;21.90;99.90
49855;DHT22;35752;52.164;21.244;2022-07-04T05:42:47;21.90;99.90
49855;DHT22;35752;52.164;21.244;2022-07-04T05:45:15;22.10;99.90
49855;DHT22;35752;52.164;21.244;2022-07-04T05:47:41;22.20;99.90
49855;DHT22;35752;52.164;21.244;2022-07-04T05:50:07;22.20;99.90
49855;DHT22;35752;52.164;21.244;2022-07-04T05:52:33;22.30;99.90
49855;DHT22;35752;52.164;21.244;2022-07-04T05:54:59;22.40;99.90
49855;DHT22;35752;52.164;21.244;2022-07-04T05:57:25;22.40;99.90
49855;DHT22;35752;52.164;21.244;2022-07-04T05:59:50;22.60;99.90
49855;DHT22;35752;52.164;21.244;2022-07-04T06:02:16;22.60;99.90
49855;DHT22;35752;52.164;21.244;2022-07-04T06:04:42;22.70;99.90
49855;DHT22;35752;52.164;21.244;2022-07-04T06:07:09;22.80;99.90
49855;DHT22;35752;52.164;21.244;2022-07-04T06:09:35;22.70;99.90
49855;DHT22;35752;52.164;21.244;2022-07-04T06:12:01;22.60;99.90
49855;DHT22;35752;52.164;21.244;2022-07-04T06:14:27;22.60;99.90
49855;DHT22;35752;52.164;21.244;2022-07-04T06:16:53;22.70;99.90
49855;DHT22;35752;52.164;21.244;2022-07-04T06:19:19;22.90;99.90
49855;DHT22;35752;52.164;21.244;2022-07-04T06:21:45;22.90;99.90
49855;DHT22;35752;52.164;21.244;2022-07-04T06:24:11;22.90;99.90
49855;DHT22;35752;52.164;21.244;2022-07-04T06:26:37;22.90;99.90
49855;DHT22;35752;52.164;21.244;2022-07-04T06:29:02;22.90;99.90
49855;DHT22;35752;52.164;21.244;2022-07-04T06:31:28;23.00;99.90
49855;DHT22;35752;52.164;21.244;2022-07-04T06:33:54;23.00;99.90
49855;DHT22;35752;52.164;21.244;2022-07-04T06:36:38;23.10;99.90
49855;DHT22;35752;52.164;21.244;2022-07-04T06:39:04;23.00;99.90
49855;DHT22;35752;52.164;21.244;2022-07-04T06:41:29;23.10;99.90
49855;DHT22;35752;52.164;21.244;2022-07-04T06:43:55;23.30;99.90
49855;DHT22;35752;52.164;21.244;2022-07-04T06:46:21;23.40;99.90
49855;DHT22;35752;52.164;21.244;2022-07-04T06:48:47;23.50;99.90
49855;DHT22;35752;52.164;21.244;2022-07-04T06:51:12;23.50;99.90
49855;DHT22;35752;52.164;21.244;2022-07-04T06:53:41;23.50;99.90
49855;DHT22;35752;52.164;21.244;2022-07-04T06:56:07;23.60;99.90
49855;DHT22;35752;52.164;21.244;2022-07-04T06:58:32;23.60;99.90
49855;DHT22;35752;52.164;21.244;2022-07-04T07:00:58;23.80;99.90
49855;DHT22;35752;52.164;21.244;2022-07-04T07:03:24;23.90;99.90
49855;DHT22;35752;52.164;21.244;2022-07-04T07:05:49;24.10;99.90
49855;DHT22;35752;52.164;21.244;2022-07-04T07:08:15;24.30;99.90
49855;DHT22;35752;52.164;21.244;2022-07-04T07:10:41;24.30;99.90
49855;DHT22;35752;52.164;21.244;2022-07-04T07:13:07;24.20;99.90
49855;DHT22;35752;52.164;21.244;2022-07-04T07:15:34;24.00;99.90
49855;DHT22;35752;52.164;21.244;2022-07-04T07:18:02;24.10;99.90
49855;DHT22;35752;52.164;21.244;2022-07-04T07:20:27;24.00;99.90
49855;DHT22;35752;52.164;21.244;2022-07-04T07:22:53;24.00;99.90
49855;DHT22;35752;52.164;21.244;2022-07-04T07:25:19;23.90;99.90
49855;DHT22;35752;52.164;21.244;2022-07-04T07:27:44;23.90;99.90
49855;DHT22;35752;52.164;21.244;2022-07-04T07:30:10;23.80;99.90
49855;DHT22;35752;52.164;21.244;2022-07-04T07:32:36;23.90;99.90
49855;DHT22;35752;52.164;21.244;2022-07-04T07:35:02;24.10;99.90
49855;DHT22;35752;52.164;21.244;2022-07-04T07:37:28;24.00;99.90
49855;DHT22;35752;52.164;21.244;2022-07-04T07:39:54;24.20;99.90
49855;DHT22;35752;52.164;21.244;2022-07-04T07:42:20;24.20;99.90
49855;DHT22;35752;52.164;21.244;2022-07-04T07:44:48;24.40;99.90
49855;DHT22;35752;52.164;21.244;2022-07-04T07:47:14;24.40;99.90
49855;DHT22;35752;52.164;21.244;2022-07-04T07:49:41;24.50;99.90
49855;DHT22;35752;52.164;21.244;2022-07-04T07:52:07;24.50;99.90
49855;DHT22;35752;52.164;21.244;2022-07-04T07:54:33;24.50;99.90
49855;DHT22;35752;52.164;21.244;2022-07-04T07:56:59;24.60;99.90
49855;DHT22;35752;52.164;21.244;2022-07-04T07:59:24;24.70;99.90
49855;DHT22;35752;52.164;21.244;2022-07-04T08:01:50;24.70;99.90
49855;DHT22;35752;52.164;21.244;2022-07-04T08:04:16;24.80;99.90
49855;DHT22;35752;52.164;21.244;2022-07-04T08:07:01;25.00;99.90
49855;DHT22;35752;52.164;21.244;2022-07-04T08:09:27;25.20;99.90
49855;DHT22;35752;52.164;21.244;2022-07-04T08:11:53;25.10;99.90
49855;DHT22;35752;52.164;21.244;2022-07-04T08:14:18;25.20;99.90
49855;DHT22;35752;52.164;21.244;2022-07-04T08:16:44;25.20;99.90
49855;DHT22;35752;52.164;21.244;2022-07-04T08:19:10;25.20;99.90
49855;DHT22;35752;52.164;21.244;2022-07-04T08:21:35;25.30;99.90
49855;DHT22;35752;52.164;21.244;2022-07-04T08:24:01;25.20;99.90
49855;DHT22;35752;52.164;21.244;2022-07-04T08:26:27;25.30;99.90
49855;DHT22;35752;52.164;21.244;2022-07-04T08:28:53;25.30;99.90
49855;DHT22;35752;52.164;21.244;2022-07-04T08:31:20;25.40;99.90
49855;DHT22;35752;52.164;21.244;2022-07-04T08:33:46;25.60;99.90
49855;DHT22;35752;52.164;21.244;2022-07-04T08:36:13;25.70;99.90
49855;DHT22;35752;52.164;21.244;2022-07-04T08:38:38;25.90;99.90
49855;DHT22;35752;52.164;21.244;2022-07-04T08:41:04;26.00;99.90
49855;DHT22;35752;52.164;21.244;2022-07-04T08:43:31;26.00;99.90
49855;DHT22;35752;52.164;21.244;2022-07-04T08:46:04;26.00;99.90
49855;DHT22;35752;52.164;21.244;2022-07-04T08:48:31;26.00;98.10
49855;DHT22;35752;52.164;21.244;2022-07-04T08:53:33;25.80;98.70
49855;DHT22;35752;52.164;21.244;2022-07-04T08:56:01;25.70;99.40
49855;DHT22;35752;52.164;21.244;2022-07-04T08:58:45;25.70;98.90
49855;DHT22;35752;52.164;21.244;2022-07-04T09:01:13;25.60;99.30
49855;DHT22;35752;52.164;21.244;2022-07-04T09:03:44;25.80;98.20
49855;DHT22;35752;52.164;21.244;2022-07-04T09:06:11;25.90;96.80
49855;DHT22;35752;52.164;21.244;2022-07-04T09:08:38;26.00;96.10
49855;DHT22;35752;52.164;21.244;2022-07-04T09:11:05;26.10;96.30
49855;DHT22;35752;52.164;21.244;2022-07-04T09:13:31;26.10;96.50
49855;DHT22;35752;52.164;21.244;2022-07-04T09:15:57;26.00;95.50
49855;DHT22;35752;52.164;21.244;2022-07-04T09:18:34;25.80;96.00
49855;DHT22;35752;52.164;21.244;2022-07-04T09:21:05;25.70;95.60
49855;DHT22;35752;52.164;21.244;2022-07-04T09:23:38;25.80;94.60
49855;DHT22;35752;52.164;21.244;2022-07-04T09:26:11;25.90;95.50
49855;DHT22;35752;52.164;21.244;2022-07-04T09:28:38;26.00;96.60
49855;DHT22;35752;52.164;21.244;2022-07-04T09:31:18;26.00;97.40
49855;DHT22;35752;52.164;21.244;2022-07-04T09:34:06;26.10;96.20
49855;DHT22;35752;52.164;21.244;2022-07-04T09:36:40;26.10;95.90
49855;DHT22;35752;52.164;21.244;2022-07-04T09:44:25;26.40;93.90
49855;DHT22;35752;52.164;21.244;2022-07-04T09:46:51;26.40;93.70
49855;DHT22;35752;52.164;21.244;2022-07-04T09:49:17;26.50;93.20
49855;DHT22;35752;52.164;21.244;2022-07-04T09:51:44;26.40;93.20
49855;DHT22;35752;52.164;21.244;2022-07-04T09:56:40;26.30;94.50
49855;DHT22;35752;52.164;21.244;2022-07-04T09:59:06;26.40;93.60
49855;DHT22;35752;52.164;21.244;2022-07-04T10:01:32;26.60;93.50
49855;DHT22;35752;52.164;21.244;2022-07-04T10:03:58;26.60;93.90
49855;DHT22;35752;52.164;21.244;2022-07-04T10:06:25;26.70;92.00
49855;DHT22;35752;52.164;21.244;2022-07-04T10:08:50;26.80;91.10
49855;DHT22;35752;52.164;21.244;2022-07-04T10:11:16;26.80;90.40
49855;DHT22;35752;52.164;21.244;2022-07-04T10:13:44;27.00;91.00
49855;DHT22;35752;52.164;21.244;2022-07-04T10:16:10;27.30;92.30
49855;DHT22;35752;52.164;21.244;2022-07-04T10:18:37;27.30;91.80
49855;DHT22;35752;52.164;21.244;2022-07-04T10:21:02;27.50;90.90
49855;DHT22;35752;52.164;21.244;2022-07-04T10:23:28;27.60;91.30
49855;DHT22;35752;52.164;21.244;2022-07-04T10:25:58;27.60;85.10
49855;DHT22;35752;52.164;21.244;2022-07-04T10:28:24;27.60;84.40
49855;DHT22;35752;52.164;21.244;2022-07-04T10:30:55;27.60;82.20
49855;DHT22;35752;52.164;21.244;2022-07-04T10:33:27;27.60;81.70
49855;DHT22;35752;52.164;21.244;2022-07-04T10:36:06;27.60;81.40
49855;DHT22;35752;52.164;21.244;2022-07-04T10:38:48;27.60;81.60
49855;DHT22;35752;52.164;21.244;2022-07-04T10:41:15;27.80;80.70
49855;DHT22;35752;52.164;21.244;2022-07-04T10:48:53;28.10;77.70
49855;DHT22;35752;52.164;21.244;2022-07-04T10:51:36;28.30;76.90
49855;DHT22;35752;52.164;21.244;2022-07-04T10:54:07;28.30;76.50
49855;DHT22;35752;52.164;21.244;2022-07-04T10:56:53;28.30;75.30
49855;DHT22;35752;52.164;21.244;2022-07-04T10:59:24;28.20;76.60
49855;DHT22;35752;52.164;21.244;2022-07-04T11:17:52;28.60;73.10
49855;DHT22;35752;52.164;21.244;2022-07-04T11:20:18;28.80;74.50
49855;DHT22;35752;52.164;21.244;2022-07-04T11:22:44;28.70;76.00
49855;DHT22;35752;52.164;21.244;2022-07-04T11:25:11;28.90;76.60
49855;DHT22;35752;52.164;21.244;2022-07-04T11:27:38;28.90;73.80
49855;DHT22;35752;52.164;21.244;2022-07-04T11:30:04;28.70;75.10
49855;DHT22;35752;52.164;21.244;2022-07-04T11:32:32;28.70;73.60
49855;DHT22;35752;52.164;21.244;2022-07-04T11:34:58;28.80;75.00
49855;DHT22;35752;52.164;21.244;2022-07-04T11:37:24;28.80;74.50
49855;DHT22;35752;52.164;21.244;2022-07-04T11:39:53;29.10;75.50
49855;DHT22;35752;52.164;21.244;2022-07-04T11:42:39;28.90;74.00
49855;DHT22;35752;52.164;21.244;2022-07-04T11:45:23;29.10;73.70
49855;DHT22;35752;52.164;21.244;2022-07-04T11:47:49;29.00;74.00
49855;DHT22;35752;52.164;21.244;2022-07-04T11:50:16;29.00;74.80
49855;DHT22;35752;52.164;21.244;2022-07-04T11:52:47;28.80;74.60
49855;DHT22;35752;52.164;21.244;2022-07-04T11:55:15;28.80;74.60
49855;DHT22;35752;52.164;21.244;2022-07-04T11:57:46;28.80;74.50
49855;DHT22;35752;52.164;21.244;2022-07-04T12:00:17;28.90;74.80
49855;DHT22;35752;52.164;21.244;2022-07-04T12:02:48;28.80;74.50
49855;DHT22;35752;52.164;21.244;2022-07-04T12:05:14;28.70;74.40
49855;DHT22;35752;52.164;21.244;2022-07-04T12:07:45;28.60;74.50
49855;DHT22;35752;52.164;21.244;2022-07-04T12:15:31;28.60;73.00
49855;DHT22;35752;52.164;21.244;2022-07-04T12:18:01;28.80;72.50
49855;DHT22;35752;52.164;21.244;2022-07-04T12:20:27;29.00;73.10
49855;DHT22;35752;52.164;21.244;2022-07-04T12:22:58;29.10;73.70
49855;DHT22;35752;52.164;21.244;2022-07-04T12:28:08;28.90;73.80
49855;DHT22;35752;52.164;21.244;2022-07-04T12:31:01;28.80;72.40
49855;DHT22;35752;52.164;21.244;2022-07-04T12:33:28;28.80;71.20
49855;DHT22;35752;52.164;21.244;2022-07-04T12:35:58;28.90;71.90
49855;DHT22;35752;52.164;21.244;2022-07-04T12:40:59;29.10;73.60
49855;DHT22;35752;52.164;21.244;2022-07-04T12:46:28;29.00;72.90
49855;DHT22;35752;52.164;21.244;2022-07-04T12:48:56;28.80;72.10
49855;DHT22;35752;52.164;21.244;2022-07-04T12:51:33;28.80;73.60
49855;DHT22;35752;52.164;21.244;2022-07-04T12:54:05;28.70;74.20
49855;DHT22;35752;52.164;21.244;2022-07-04T12:56:36;28.70;73.40
49855;DHT22;35752;52.164;21.244;2022-07-04T12:59:05;28.60;73.70
49855;DHT22;35752;52.164;21.244;2022-07-04T13:01:31;28.50;71.60
49855;DHT22;35752;52.164;21.244;2022-07-04T13:03:58;28.40;72.60
49855;DHT22;35752;52.164;21.244;2022-07-04T13:06:24;28.40;73.90
49855;DHT22;35752;52.164;21.244;2022-07-04T13:08:50;28.40;74.50
49855;DHT22;35752;52.164;21.244;2022-07-04T13:11:16;28.50;72.80
49855;DHT22;35752;52.164;21.244;2022-07-04T13:14:00;28.60;73.80
49855;DHT22;35752;52.164;21.244;2022-07-04T13:16:26;28.50;73.00
49855;DHT22;35752;52.164;21.244;2022-07-04T13:18:51;28.60;72.20
49855;DHT22;35752;52.164;21.244;2022-07-04T13:21:17;28.50;72.80
49855;DHT22;35752;52.164;21.244;2022-07-04T13:23:43;28.40;73.90
49855;DHT22;35752;52.164;21.244;2022-07-04T13:26:09;28.40;74.90
49855;DHT22;35752;52.164;21.244;2022-07-04T13:28:35;28.30;76.30
49855;DHT22;35752;52.164;21.244;2022-07-04T13:31:01;28.30;75.40
49855;DHT22;35752;52.164;21.244;2022-07-04T13:33:27;28.30;76.20
49855;DHT22;35752;52.164;21.244;2022-07-04T13:35:53;28.30;75.00
49855;DHT22;35752;52.164;21.244;2022-07-04T13:38:19;28.20;75.00
49855;DHT22;35752;52.164;21.244;2022-07-04T13:40:45;28.30;74.60
49855;DHT22;35752;52.164;21.244;2022-07-04T13:43:11;28.40;74.50
49855;DHT22;35752;52.164;21.244;2022-07-04T13:45:38;28.30;75.80
49855;DHT22;35752;52.164;21.244;2022-07-04T13:48:05;28.30;73.70
49855;DHT22;35752;52.164;21.244;2022-07-04T13:50:31;28.20;73.00
49855;DHT22;35752;52.164;21.244;2022-07-04T13:52:57;28.20;73.00
49855;DHT22;35752;52.164;21.244;2022-07-04T13:55:23;28.10;73.10
49855;DHT22;35752;52.164;21.244;2022-07-04T13:57:49;28.10;72.20
49855;DHT22;35752;52.164;21.244;2022-07-04T14:00:15;28.00;73.10
49855;DHT22;35752;52.164;21.244;2022-07-04T14:02:41;27.90;73.20
49855;DHT22;35752;52.164;21.244;2022-07-04T14:05:07;27.80;73.70
49855;DHT22;35752;52.164;21.244;2022-07-04T14:07:33;27.70;75.10
49855;DHT22;35752;52.164;21.244;2022-07-04T14:10:01;27.80;74.80
49855;DHT22;35752;52.164;21.244;2022-07-04T14:12:27;27.80;74.50
49855;DHT22;35752;52.164;21.244;2022-07-04T14:14:53;27.90;74.80
49855;DHT22;35752;52.164;21.244;2022-07-04T14:17:18;28.00;74.20
49855;DHT22;35752;52.164;21.244;2022-07-04T14:19:44;28.10;73.10
49855;DHT22;35752;52.164;21.244;2022-07-04T14:22:10;28.10;73.60
49855;DHT22;35752;52.164;21.244;2022-07-04T14:24:36;28.20;74.60
49855;DHT22;35752;52.164;21.244;2022-07-04T14:27:01;28.20;73.50
49855;DHT22;35752;52.164;21.244;2022-07-04T14:29:28;28.30;73.10
49855;DHT22;35752;52.164;21.244;2022-07-04T14:31:53;28.40;72.80
49855;DHT22;35752;52.164;21.244;2022-07-04T14:34:19;28.40;72.30
49855;DHT22;35752;52.164;21.244;2022-07-04T14:36:45;28.40;73.20
49855;DHT22;35752;52.164;21.244;2022-07-04T14:39:11;28.30;73.40
49855;DHT22;35752;52.164;21.244;2022-07-04T14:41:36;28.30;72.60
49855;DHT22;35752;52.164;21.244;2022-07-04T14:44:02;28.40;75.10
49855;DHT22;35752;52.164;21.244;2022-07-04T14:46:28;28.50;74.30
49855;DHT22;35752;52.164;21.244;2022-07-04T14:48:56;28.70;73.20
49855;DHT22;35752;52.164;21.244;2022-07-04T14:51:23;28.80;74.20
49855;DHT22;35752;52.164;21.244;2022-07-04T14:53:48;28.80;74.10
49855;DHT22;35752;52.164;21.244;2022-07-04T14:56:14;28.80;73.10
49855;DHT22;35752;52.164;21.244;2022-07-04T14:58:40;28.70;72.40
49855;DHT22;35752;52.164;21.244;2022-07-04T15:01:05;28.60;72.00
49855;DHT22;35752;52.164;21.244;2022-07-04T15:03:32;28.50;73.00
49855;DHT22;35752;52.164;21.244;2022-07-04T15:05:57;28.40;71.80
49855;DHT22;35752;52.164;21.244;2022-07-04T15:08:23;28.40;73.10
49855;DHT22;35752;52.164;21.244;2022-07-04T15:10:50;28.40;72.60
49855;DHT22;35752;52.164;21.244;2022-07-04T15:13:15;28.50;72.50
49855;DHT22;35752;52.164;21.244;2022-07-04T15:15:41;28.40;71.80
49855;DHT22;35752;52.164;21.244;2022-07-04T15:18:07;28.50;72.80
49855;DHT22;35752;52.164;21.244;2022-07-04T15:20:32;28.50;72.30
49855;DHT22;35752;52.164;21.244;2022-07-04T15:23:17;28.50;73.80
49855;DHT22;35752;52.164;21.244;2022-07-04T15:26:01;28.40;73.50
49855;DHT22;35752;52.164;21.244;2022-07-04T15:28:27;28.50;72.80
49855;DHT22;35752;52.164;21.244;2022-07-04T15:30:53;28.50;72.90
49855;DHT22;35752;52.164;21.244;2022-07-04T15:33:19;28.50;71.50
49855;DHT22;35752;52.164;21.244;2022-07-04T15:35:45;28.40;72.60
49855;DHT22;35752;52.164;21.244;2022-07-04T15:38:11;28.40;72.30
49855;DHT22;35752;52.164;21.244;2022-07-04T15:40:37;28.30;72.10
49855;DHT22;35752;52.164;21.244;2022-07-04T15:43:03;28.20;71.80
49855;DHT22;35752;52.164;21.244;2022-07-04T15:45:29;28.10;72.10
49855;DHT22;35752;52.164;21.244;2022-07-04T15:47:55;28.20;73.10
49855;DHT22;35752;52.164;21.244;2022-07-04T15:50:20;28.20;74.10
49855;DHT22;35752;52.164;21.244;2022-07-04T15:52:47;28.30;73.10
49855;DHT22;35752;52.164;21.244;2022-07-04T15:55:13;28.50;74.10
49855;DHT22;35752;52.164;21.244;2022-07-04T15:57:39;28.60;74.00
49855;DHT22;35752;52.164;21.244;2022-07-04T16:00:05;28.70;73.60